Time;durP1;ratioP1;P1;durP2;ratioP2;P2;SDS_P1;SDS_P2;PMS_P1;PMS_P2;Temp;Humidity;BMP_temperature;BMP_pressure;BME280_temperature;BME280_humidity;BME280_pressure;Samples;Min_cycle;Max_cycle;Signal;HPM_P1;HPM_P2
2023/01/21 00:02:48;;;;;;;15.73;10.97;;;;;;;;;;6234470;28;20417;-80
2023/01/21 00:05:57;;;;;;;13.90;9.33;;;;;;;;;;6235683;28;20302;-80
2023/01/21 00:09:02;;;;;;;12.23;9.90;;;;;;;;;;6235060;28;20457;-80
2023/01/21 00:12:07;;;;;;;10.77;9.17;;;;;;;;;;6225779;28;20269;-80
2023/01/21 00:15:12;;;;;;;13.93;10.00;;;;;;;;;;6225617;28;20293;-80
2023/01/21 00:18:18;;;;;;;13.20;9.33;;;;;;;;;;6210715;28;20300;-81
2023/01/21 00:21:25;;;;;;;12.23;10.10;;;;;;;;;;6211313;28;20273;-80
2023/01/21 00:24:33;;;;;;;14.43;10.07;;;;;;;;;;6209588;28;20306;-80
2023/01/21 00:27:38;;;;;;;11.90;9.50;;;;;;;;;;6215296;28;20301;-80
2023/01/21 00:30:43;;;;;;;12.70;9.83;;;;;;;;;;6215667;28;20289;-80
2023/01/21 00:33:49;;;;;;;10.90;9.67;;;;;;;;;;6221835;28;20300;-80
2023/01/21 00:36:56;;;;;;;11.43;8.87;;;;;;;;;;6240574;28;20402;-80
2023/01/21 00:40:01;;;;;;;9.67;8.47;;;;;;;;;;6239081;28;20297;-80
2023/01/21 00:43:06;;;;;;;10.00;9.00;;;;;;;;;;6239094;28;20298;-80
2023/01/21 00:46:14;;;;;;;13.23;9.60;;;;;;;;;;6239934;28;20268;-80
2023/01/21 00:49:20;;;;;;;11.30;8.30;;;;;;;;;;6239338;28;20298;-80
2023/01/21 00:52:26;;;;;;;9.37;7.97;;;;;;;;;;6237949;28;20272;-81
2023/01/21 00:55:32;;;;;;;12.10;9.30;;;;;;;;;;6244059;28;20255;-78
2023/01/21 00:58:37;;;;;;;17.53;10.13;;;;;;;;;;6254801;28;20250;-78
2023/01/21 01:01:43;;;;;;;17.87;10.40;;;;;;;;;;6256008;28;20264;-79
2023/01/21 01:04:48;;;;;;;12.53;8.70;;;;;;;;;;6244860;28;20296;-80
2023/01/21 01:07:55;;;;;;;15.83;10.40;;;;;;;;;;6239386;28;20300;-80
2023/01/21 01:11:02;;;;;;;31.93;15.43;;;;;;;;;;6239073;28;20273;-80
2023/01/21 01:14:07;;;;;;;20.93;12.67;;;;;;;;;;6253158;28;20302;-80
2023/01/21 01:17:12;;;;;;;14.57;10.03;;;;;;;;;;6253687;28;20561;-80
2023/01/21 01:20:18;;;;;;;22.33;12.73;;;;;;;;;;6236647;28;20385;-80
2023/01/21 01:23:25;;;;;;;20.70;11.70;;;;;;;;;;6238237;28;20298;-79
2023/01/21 01:26:30;;;;;;;25.90;12.23;;;;;;;;;;6238254;28;20275;-79
2023/01/21 01:29:35;;;;;;;21.13;11.57;;;;;;;;;;6237577;28;20298;-80
2023/01/21 01:32:41;;;;;;;11.63;9.20;;;;;;;;;;6237952;28;20272;-80
2023/01/21 01:35:47;;;;;;;21.70;11.23;;;;;;;;;;6238255;28;20267;-81
2023/01/21 01:38:55;;;;;;;13.43;8.93;;;;;;;;;;6237521;28;20293;-80
2023/01/21 01:42:01;;;;;;;16.00;9.90;;;;;;;;;;6237738;28;20275;-80
2023/01/21 01:45:11;;;;;;;13.20;8.97;;;;;;;;;;6237276;28;20296;-80
2023/01/21 01:48:19;;;;;;;9.10;7.93;;;;;;;;;;6237458;28;20293;-80
2023/01/21 01:51:30;;;;;;;16.50;9.40;;;;;;;;;;6238056;28;20274;-80
2023/01/21 01:54:40;;;;;;;11.30;8.90;;;;;;;;;;6237532;28;20294;-79
2023/01/21 01:57:48;;;;;;;11.10;8.70;;;;;;;;;;6237360;28;20269;-80
2023/01/21 02:00:53;;;;;;;8.10;7.13;;;;;;;;;;6237713;28;20265;-80
2023/01/21 02:04:00;;;;;;;13.33;9.33;;;;;;;;;;6237473;28;20289;-80
2023/01/21 02:07:05;;;;;;;17.43;9.43;;;;;;;;;;6237629;28;20490;-80
2023/01/21 02:10:19;;;;;;;8.50;7.27;;;;;;;;;;6230609;28;20291;-80
2023/01/21 02:13:26;;;;;;;8.90;7.27;;;;;;;;;;6212359;28;20590;-81
2023/01/21 02:17:03;;;;;;;8.93;6.63;;;;;;;;;;6213009;28;20448;-80
2023/01/21 02:20:35;;;;;;;6.93;6.30;;;;;;;;;;6212500;28;20305;-80
2023/01/21 02:23:55;;;;;;;7.27;6.63;;;;;;;;;;6212748;28;20292;-80
2023/01/21 02:27:15;;;;;;;6.73;6.03;;;;;;;;;;6212280;28;20477;-79
2023/01/21 02:30:46;;;;;;;10.00;7.60;;;;;;;;;;6212106;28;20298;-80
2023/01/21 02:34:03;;;;;;;6.93;6.30;;;;;;;;;;6212025;28;20330;-80
2023/01/21 02:37:12;;;;;;;6.73;6.07;;;;;;;;;;6212795;28;20271;-80
2023/01/21 02:40:24;;;;;;;10.07;7.37;;;;;;;;;;6212442;28;20306;-80
2023/01/21 02:43:36;;;;;;;14.40;8.37;;;;;;;;;;6211981;28;20293;-80
2023/01/21 02:46:46;;;;;;;13.73;8.90;;;;;;;;;;6212113;28;20269;-79
2023/01/21 02:49:55;;;;;;;9.07;7.33;;;;;;;;;;6210641;28;20302;-79
2023/01/21 02:53:02;;;;;;;6.47;5.97;;;;;;;;;;6211664;28;20489;-79
2023/01/21 02:56:11;;;;;;;6.10;5.60;;;;;;;;;;6211968;28;20283;-79
2023/01/21 02:59:16;;;;;;;9.13;6.70;;;;;;;;;;6210406;28;20466;-80
2023/01/21 03:02:32;;;;;;;29.17;12.93;;;;;;;;;;6212377;28;20443;-80
2023/01/21 03:05:54;;;;;;;9.80;7.60;;;;;;;;;;6211341;28;20297;-79
2023/01/21 03:09:05;;;;;;;7.93;6.80;;;;;;;;;;6211276;28;20566;-80
2023/01/21 03:12:21;;;;;;;17.87;9.47;;;;;;;;;;6233843;28;20261;-80
2023/01/21 03:18:53;;;;;;;6.93;6.43;;;;;;;;;;6236087;28;20306;-81
2023/01/21 03:22:05;;;;;;;8.60;7.70;;;;;;;;;;6235820;28;20276;-80
2023/01/21 03:25:13;;;;;;;10.13;7.40;;;;;;;;;;6235628;28;20317;-79
2023/01/21 03:28:21;;;;;;;10.17;7.30;;;;;;;;;;6235716;28;20559;-80
2023/01/21 03:31:29;;;;;;;9.10;6.93;;;;;;;;;;6235863;28;20273;-81
2023/01/21 03:34:36;;;;;;;19.77;10.27;;;;;;;;;;6235866;28;20589;-81
2023/01/21 03:37:46;;;;;;;10.13;8.20;;;;;;;;;;6238908;28;20283;-81
2023/01/21 03:40:56;;;;;;;15.67;7.93;;;;;;;;;;6239359;28;20271;-80
2023/01/21 03:44:01;;;;;;;9.20;7.57;;;;;;;;;;6234144;28;20301;-81
2023/01/21 03:47:14;;;;;;;8.33;6.60;;;;;;;;;;6235781;28;20289;-81
2023/01/21 03:50:22;;;;;;;8.87;6.87;;;;;;;;;;6234190;28;20296;-81
2023/01/21 03:53:29;;;;;;;9.23;6.80;;;;;;;;;;6235109;28;20292;-81
2023/01/21 03:56:35;;;;;;;12.00;6.53;;;;;;;;;;6236262;28;20549;-80
2023/01/21 03:59:41;;;;;;;9.07;7.00;;;;;;;;;;6235868;28;20302;-80
2023/01/21 04:02:46;;;;;;;6.90;6.27;;;;;;;;;;6235601;28;20280;-81
2023/01/21 04:05:51;;;;;;;8.80;7.07;;;;;;;;;;6222151;28;20307;-80
2023/01/21 04:08:58;;;;;;;7.77;6.20;;;;;;;;;;6240271;28;20300;-80
2023/01/21 04:12:04;;;;;;;10.80;7.50;;;;;;;;;;6224235;28;20566;-80
2023/01/21 04:15:11;;;;;;;7.50;6.60;;;;;;;;;;6215223;28;20304;-80
2023/01/21 04:18:17;;;;;;;7.37;6.67;;;;;;;;;;6214943;28;20293;-79
2023/01/21 04:21:22;;;;;;;7.07;6.37;;;;;;;;;;6236845;28;20269;-81
2023/01/21 04:24:29;;;;;;;9.77;6.93;;;;;;;;;;6238489;28;20297;-81
2023/01/21 04:27:36;;;;;;;7.97;6.90;;;;;;;;;;6240073;28;20278;-80
2023/01/21 04:30:41;;;;;;;10.30;7.43;;;;;;;;;;6239154;28;20381;-80
2023/01/21 04:33:46;;;;;;;9.77;7.30;;;;;;;;;;6239319;28;20292;-80
2023/01/21 04:36:51;;;;;;;8.63;7.20;;;;;;;;;;6230072;28;20267;-79
2023/01/21 04:39:57;;;;;;;8.47;6.77;;;;;;;;;;6214856;28;20293;-80
2023/01/21 04:43:02;;;;;;;10.27;7.73;;;;;;;;;;6215207;28;20270;-80
2023/01/21 04:46:07;;;;;;;11.87;7.13;;;;;;;;;;6212818;28;20294;-80
2023/01/21 04:49:15;;;;;;;13.20;8.43;;;;;;;;;;6214498;28;20331;-81
2023/01/21 04:52:20;;;;;;;10.37;7.93;;;;;;;;;;6214833;28;20279;-80
2023/01/21 04:55:27;;;;;;;12.47;8.40;;;;;;;;;;6214326;28;20308;-80
2023/01/21 04:58:33;;;;;;;13.40;8.60;;;;;;;;;;6214657;28;20297;-81
2023/01/21 05:01:38;;;;;;;11.50;7.73;;;;;;;;;;6214855;28;20487;-81
2023/01/21 05:04:44;;;;;;;10.67;7.67;;;;;;;;;;6214293;28;20293;-80
2023/01/21 05:07:51;;;;;;;11.73;7.77;;;;;;;;;;6213251;28;20494;-80
2023/01/21 05:10:57;;;;;;;11.53;7.53;;;;;;;;;;6220461;28;20304;-80
2023/01/21 05:14:02;;;;;;;11.33;7.60;;;;;;;;;;6236897;28;20305;-80
2023/01/21 05:17:08;;;;;;;8.67;7.07;;;;;;;;;;6238721;28;20279;-81
2023/01/21 05:20:13;;;;;;;11.37;8.13;;;;;;;;;;6238512;28;20435;-80
2023/01/21 05:23:19;;;;;;;13.03;8.30;;;;;;;;;;6238086;28;20283;-80
2023/01/21 05:26:25;;;;;;;11.93;8.07;;;;;;;;;;6238444;28;20268;-80
2023/01/21 05:29:30;;;;;;;11.70;7.73;;;;;;;;;;6253038;28;20312;-80
2023/01/21 05:32:35;;;;;;;12.93;8.40;;;;;;;;;;6238435;28;20512;-80
2023/01/21 05:35:40;;;;;;;9.93;8.20;;;;;;;;;;6237968;28;20628;-80
2023/01/21 05:38:46;;;;;;;9.10;7.50;;;;;;;;;;6238200;28;20356;-79
2023/01/21 05:41:52;;;;;;;11.17;7.77;;;;;;;;;;6238417;28;20292;-79
2023/01/21 05:45:00;;;;;;;16.17;8.90;;;;;;;;;;6238191;28;20455;-80
2023/01/21 05:48:06;;;;;;;8.20;7.30;;;;;;;;;;6236382;28;20277;-78
2023/01/21 05:51:11;;;;;;;13.13;7.97;;;;;;;;;;6253196;28;20293;-81
2023/01/21 05:54:20;;;;;;;8.00;7.20;;;;;;;;;;6237635;28;20309;-79
2023/01/21 05:57:26;;;;;;;9.27;7.60;;;;;;;;;;6238020;28;20518;-80
2023/01/21 06:00:32;;;;;;;9.57;7.67;;;;;;;;;;6252622;28;20295;-80
2023/01/21 06:03:37;;;;;;;12.17;8.17;;;;;;;;;;6237755;28;20287;-80
2023/01/21 06:06:42;;;;;;;10.77;8.07;;;;;;;;;;6237851;28;20299;-81
2023/01/21 06:09:48;;;;;;;11.80;8.43;;;;;;;;;;6237059;28;20304;-80
2023/01/21 06:12:56;;;;;;;11.53;8.73;;;;;;;;;;6212563;28;20272;-80
2023/01/21 06:16:02;;;;;;;13.90;9.17;;;;;;;;;;6212415;28;20432;-80
2023/01/21 06:19:06;;;;;;;12.77;9.40;;;;;;;;;;6213440;28;20296;-80
2023/01/21 06:22:15;;;;;;;12.10;8.13;;;;;;;;;;6213542;28;20285;-81
2023/01/21 06:25:20;;;;;;;11.03;8.73;;;;;;;;;;6212825;28;20478;-79
2023/01/21 06:28:26;;;;;;;12.47;7.97;;;;;;;;;;6212340;28;20288;-81
2023/01/21 06:31:33;;;;;;;13.77;8.57;;;;;;;;;;6213255;28;20281;-80
2023/01/21 06:34:38;;;;;;;13.03;8.60;;;;;;;;;;6218007;28;20483;-81
2023/01/21 06:37:44;;;;;;;13.67;8.97;;;;;;;;;;6221802;28;20262;-80
2023/01/21 06:40:49;;;;;;;14.63;8.97;;;;;;;;;;6225771;28;20499;-81
2023/01/21 06:43:55;;;;;;;15.77;9.37;;;;;;;;;;6215303;28;20314;-81
2023/01/21 06:47:02;;;;;;;14.17;8.97;;;;;;;;;;6217618;28;20266;-81
2023/01/21 06:50:10;;;;;;;16.20;9.83;;;;;;;;;;6210678;28;20308;-81
2023/01/21 06:53:15;;;;;;;12.43;8.80;;;;;;;;;;6211603;28;20560;-80
2023/01/21 06:56:20;;;;;;;13.33;8.67;;;;;;;;;;6211078;28;20273;-80
2023/01/21 06:59:27;;;;;;;16.77;9.47;;;;;;;;;;6212414;28;20592;-80
2023/01/21 07:02:33;;;;;;;13.83;9.33;;;;;;;;;;6211979;28;20276;-80
2023/01/21 07:05:38;;;;;;;15.80;9.93;;;;;;;;;;6211666;28;20304;-80
2023/01/21 07:08:43;;;;;;;14.00;9.33;;;;;;;;;;6211532;28;20296;-81
2023/01/21 07:11:49;;;;;;;15.27;9.33;;;;;;;;;;6219092;28;20310;-80
2023/01/21 07:14:56;;;;;;;15.23;8.87;;;;;;;;;;6211926;28;20368;-80
2023/01/21 07:18:01;;;;;;;16.40;8.53;;;;;;;;;;6211626;28;20278;-80
2023/01/21 07:21:07;;;;;;;14.50;9.03;;;;;;;;;;6210736;28;20279;-80
2023/01/21 07:24:13;;;;;;;17.67;10.73;;;;;;;;;;6211657;28;20402;-80
2023/01/21 07:27:18;;;;;;;16.57;9.87;;;;;;;;;;6211959;28;20272;-81
2023/01/21 07:30:27;;;;;;;17.90;10.30;;;;;;;;;;6211446;28;20316;-81
2023/01/21 07:33:32;;;;;;;16.37;9.47;;;;;;;;;;6211521;28;20301;-81
2023/01/21 07:36:37;;;;;;;13.50;9.17;;;;;;;;;;6210865;28;20273;-81
2023/01/21 07:39:43;;;;;;;13.93;9.43;;;;;;;;;;6211220;28;20301;-81
2023/01/21 07:42:52;;;;;;;13.30;9.13;;;;;;;;;;6211346;28;20269;-80
2023/01/21 07:45:59;;;;;;;12.10;8.07;;;;;;;;;;6211322;28;20300;-81
2023/01/21 07:49:08;;;;;;;13.20;8.13;;;;;;;;;;6209979;28;20304;-80
2023/01/21 07:52:13;;;;;;;10.43;8.60;;;;;;;;;;6211554;28;20597;-80
2023/01/21 07:55:19;;;;;;;11.13;8.40;;;;;;;;;;6211445;28;20301;-81
2023/01/21 07:58:24;;;;;;;8.93;7.93;;;;;;;;;;6211307;28;20307;-82
2023/01/21 08:01:31;;;;;;;8.50;7.57;;;;;;;;;;6211280;28;20321;-82
2023/01/21 08:04:36;;;;;;;11.70;7.70;;;;;;;;;;6210891;28;20512;-81
2023/01/21 08:07:41;;;;;;;9.60;7.73;;;;;;;;;;6211456;28;20309;-81
2023/01/21 08:10:52;;;;;;;11.07;8.07;;;;;;;;;;6219566;28;20300;-81
2023/01/21 08:13:57;;;;;;;11.83;8.57;;;;;;;;;;6235704;28;20301;-80
2023/01/21 08:17:03;;;;;;;13.87;9.00;;;;;;;;;;6235719;28;20325;-81
2023/01/21 08:20:10;;;;;;;15.03;9.63;;;;;;;;;;6235717;28;20305;-81
2023/01/21 08:23:15;;;;;;;10.00;8.60;;;;;;;;;;6234694;28;20459;-80
2023/01/21 08:26:21;;;;;;;10.67;8.43;;;;;;;;;;6234714;28;20285;-81
2023/01/21 08:29:29;;;;;;;10.07;8.93;;;;;;;;;;6235463;28;20483;-81
2023/01/21 08:32:36;;;;;;;9.37;7.67;;;;;;;;;;6235605;28;20300;-81
2023/01/21 08:35:41;;;;;;;10.87;8.07;;;;;;;;;;6235770;28;20303;-79
2023/01/21 08:38:46;;;;;;;10.20;8.63;;;;;;;;;;6235078;28;20312;-82
2023/01/21 08:41:52;;;;;;;8.90;7.60;;;;;;;;;;6236721;28;20564;-80
2023/01/21 08:44:57;;;;;;;8.37;7.47;;;;;;;;;;6235230;28;20288;-81
2023/01/21 08:48:05;;;;;;;9.70;7.60;;;;;;;;;;6238664;28;20274;-81
2023/01/21 08:51:12;;;;;;;10.90;8.73;;;;;;;;;;6238677;28;20269;-82
2023/01/21 08:54:17;;;;;;;11.37;8.73;;;;;;;;;;6237556;28;20362;-80
2023/01/21 08:57:23;;;;;;;13.10;9.03;;;;;;;;;;6240507;28;20268;-81
2023/01/21 09:00:28;;;;;;;11.10;9.13;;;;;;;;;;6240023;28;20288;-79
2023/01/21 09:03:35;;;;;;;19.10;9.50;;;;;;;;;;6238430;28;20328;-79
2023/01/21 09:06:40;;;;;;;11.90;9.23;;;;;;;;;;6221647;28;20303;-80
2023/01/21 09:09:47;;;;;;;13.23;9.47;;;;;;;;;;6238540;28;20377;-80
2023/01/21 09:12:52;;;;;;;12.13;8.73;;;;;;;;;;6214380;28;20290;-79
2023/01/21 09:15:57;;;;;;;12.73;9.23;;;;;;;;;;6213976;28;20291;-78
2023/01/21 09:19:04;;;;;;;11.63;9.03;;;;;;;;;;6214706;28;20296;-78
2023/01/21 09:22:09;;;;;;;12.17;8.90;;;;;;;;;;6214318;28;20280;-80
2023/01/21 09:25:15;;;;;;;11.10;9.17;;;;;;;;;;6214097;28;20293;-79
2023/01/21 09:28:21;;;;;;;10.00;8.37;;;;;;;;;;6213961;28;20272;-79
2023/01/21 09:31:29;;;;;;;8.43;7.63;;;;;;;;;;6213056;28;20283;-80
2023/01/21 09:34:36;;;;;;;8.20;7.40;;;;;;;;;;6213587;28;20300;-83
2023/01/21 09:37:41;;;;;;;24.17;15.70;;;;;;;;;;6212941;28;20274;-82
2023/01/21 09:40:46;;;;;;;26.37;18.40;;;;;;;;;;6213832;28;20300;-79
2023/01/21 09:43:59;;;;;;;22.97;15.27;;;;;;;;;;6213704;28;20307;-78
2023/01/21 09:47:06;;;;;;;10.23;9.20;;;;;;;;;;6214424;28;20276;-76
2023/01/21 09:50:17;;;;;;;13.80;8.93;;;;;;;;;;6214138;28;20297;-84
2023/01/21 09:53:28;;;;;;;10.43;8.77;;;;;;;;;;6213231;28;20292;-81
2023/01/21 09:56:42;;;;;;;10.60;8.00;;;;;;;;;;6212607;28;20567;-81
2023/01/21 09:59:58;;;;;;;10.60;9.43;;;;;;;;;;6213163;28;20291;-80
2023/01/21 10:03:13;;;;;;;8.20;7.40;;;;;;;;;;6213944;28;20281;-78
2023/01/21 10:06:25;;;;;;;8.07;7.37;;;;;;;;;;6211155;28;20614;-79
2023/01/21 10:09:51;;;;;;;8.40;7.47;;;;;;;;;;6212963;28;20303;-78
2023/01/21 10:13:05;;;;;;;9.37;7.63;;;;;;;;;;6213305;28;20317;-79
2023/01/21 10:16:17;;;;;;;8.37;7.20;;;;;;;;;;6212647;28;20273;-78
2023/01/21 10:19:28;;;;;;;7.53;6.80;;;;;;;;;;6212968;28;20300;-80
2023/01/21 10:22:34;;;;;;;7.07;6.20;;;;;;;;;;6213470;28;20554;-80
2023/01/21 10:25:40;;;;;;;6.67;6.07;;;;;;;;;;6211701;28;20628;-81
2023/01/21 10:28:49;;;;;;;7.10;6.40;;;;;;;;;;6212844;28;20617;-81
2023/01/21 10:31:58;;;;;;;6.83;6.23;;;;;;;;;;6212695;28;20292;-81
2023/01/21 10:35:06;;;;;;;7.27;6.07;;;;;;;;;;6211952;28;20606;-81
2023/01/21 10:38:21;;;;;;;7.03;6.33;;;;;;;;;;6228107;28;20273;-80
2023/01/21 10:41:35;;;;;;;7.03;6.43;;;;;;;;;;6213440;28;20566;-80
2023/01/21 10:44:44;;;;;;;7.43;6.73;;;;;;;;;;6211002;28;20318;-81
2023/01/21 10:47:54;;;;;;;8.33;6.43;;;;;;;;;;6212591;28;20277;-81
2023/01/21 10:51:03;;;;;;;7.33;6.40;;;;;;;;;;6212436;28;20296;-81
2023/01/21 10:54:15;;;;;;;8.03;7.30;;;;;;;;;;6211915;28;20313;-81
2023/01/21 10:57:35;;;;;;;6.93;6.23;;;;;;;;;;6211432;28;20558;-80
2023/01/21 11:00:43;;;;;;;6.60;5.93;;;;;;;;;;6212123;28;20294;-82
2023/01/21 11:03:50;;;;;;;11.53;6.63;;;;;;;;;;6211848;28;20316;-80
2023/01/21 11:06:59;;;;;;;6.63;6.13;;;;;;;;;;6211984;28;20294;-80
2023/01/21 11:10:08;;;;;;;6.27;5.70;;;;;;;;;;6213103;28;20579;-81
2023/01/21 11:13:15;;;;;;;7.10;6.50;;;;;;;;;;6235756;28;20295;-81
2023/01/21 11:16:46;;;;;;;6.87;6.20;;;;;;;;;;6236120;28;20275;-81
2023/01/21 11:19:59;;;;;;;6.43;5.80;;;;;;;;;;6229602;28;20298;-81
2023/01/21 11:23:06;;;;;;;6.27;5.63;;;;;;;;;;6235609;28;20282;-80
2023/01/21 11:26:20;;;;;;;6.77;6.20;;;;;;;;;;6236285;28;20324;-82
2023/01/21 11:29:26;;;;;;;7.73;6.60;;;;;;;;;;6236229;28;20295;-82
2023/01/21 11:32:32;;;;;;;6.37;5.83;;;;;;;;;;6236824;28;20274;-82
2023/01/21 11:35:37;;;;;;;6.43;5.90;;;;;;;;;;6236341;28;20303;-82
2023/01/21 11:38:43;;;;;;;7.07;5.90;;;;;;;;;;6236549;28;20319;-81
2023/01/21 11:41:53;;;;;;;7.77;6.40;;;;;;;;;;6236434;28;20529;-81
2023/01/21 11:45:03;;;;;;;8.27;7.13;;;;;;;;;;6236330;28;20587;-82
2023/01/21 11:48:20;;;;;;;6.87;6.27;;;;;;;;;;6235915;28;20291;-80
2023/01/21 11:51:25;;;;;;;7.00;6.07;;;;;;;;;;6236014;28;20450;-81
2023/01/21 11:54:39;;;;;;;6.63;6.07;;;;;;;;;;6235199;28;20312;-81
2023/01/21 11:57:51;;;;;;;8.40;6.20;;;;;;;;;;6234578;28;20267;-82
2023/01/21 12:00:57;;;;;;;7.40;6.67;;;;;;;;;;6235292;28;20304;-80
2023/01/21 12:04:02;;;;;;;8.57;6.60;;;;;;;;;;6233755;28;20304;-80
2023/01/21 12:07:07;;;;;;;6.63;6.03;;;;;;;;;;6235832;28;20303;-81
2023/01/21 12:10:28;;;;;;;7.50;6.53;;;;;;;;;;6243824;28;20286;-81
2023/01/21 12:13:38;;;;;;;6.40;5.80;;;;;;;;;;6227559;28;20272;-79
2023/01/21 12:16:51;;;;;;;6.90;6.20;;;;;;;;;;6226660;28;20226;-79
2023/01/21 12:20:17;;;;;;;6.30;5.70;;;;;;;;;;6212664;28;20473;-80
2023/01/21 12:23:48;;;;;;;5.77;5.40;;;;;;;;;;6216322;28;20257;-79
2023/01/21 12:27:00;;;;;;;5.90;5.43;;;;;;;;;;6231163;28;20277;-80
2023/01/21 12:30:22;;;;;;;5.93;5.37;;;;;;;;;;6215912;28;20313;-78
2023/01/21 12:33:42;;;;;;;5.73;5.23;;;;;;;;;;6214923;28;20296;-80
2023/01/21 12:36:50;;;;;;;5.93;5.40;;;;;;;;;;6233823;28;20288;-79
2023/01/21 12:39:57;;;;;;;6.13;5.63;;;;;;;;;;6237774;28;20608;-82
2023/01/21 12:43:08;;;;;;;6.03;5.53;;;;;;;;;;6239300;28;20279;-83
2023/01/21 12:46:19;;;;;;;6.37;5.87;;;;;;;;;;6238999;28;20294;-78
2023/01/21 12:49:28;;;;;;;6.30;5.70;;;;;;;;;;6239233;28;20296;-84
2023/01/21 12:52:38;;;;;;;6.23;5.67;;;;;;;;;;6240903;28;20280;-83
2023/01/21 12:56:03;;;;;;;6.67;6.07;;;;;;;;;;6240939;28;20307;-82
2023/01/21 12:59:15;;;;;;;9.10;6.47;;;;;;;;;;6239635;28;20299;-79
2023/01/21 13:02:27;;;;;;;6.57;6.07;;;;;;;;;;6243980;28;20261;-78
2023/01/21 13:05:38;;;;;;;6.83;5.83;;;;;;;;;;6251304;28;20272;-84
2023/01/21 13:08:56;;;;;;;8.20;5.57;;;;;;;;;;6254701;28;20251;-81
2023/01/21 13:12:05;;;;;;;6.43;5.80;;;;;;;;;;6253923;28;20239;-83
2023/01/21 13:15:17;;;;;;;7.33;5.83;;;;;;;;;;6252961;28;20304;-79
2023/01/21 13:18:28;;;;;;;7.47;5.23;;;;;;;;;;6249684;28;20236;-80
2023/01/21 13:21:38;;;;;;;6.97;6.20;;;;;;;;;;6240059;28;20272;-77
2023/01/21 13:25:00;;;;;;;7.10;6.10;;;;;;;;;;6239533;28;20490;-81
2023/01/21 13:28:10;;;;;;;7.63;5.77;;;;;;;;;;6239589;28;20276;-81
2023/01/21 13:31:22;;;;;;;6.17;5.67;;;;;;;;;;6239364;28;20276;-81
2023/01/21 13:34:34;;;;;;;6.53;5.63;;;;;;;;;;6237680;28;20591;-81
2023/01/21 13:37:47;;;;;;;7.57;5.30;;;;;;;;;;6239546;28;20275;-81
2023/01/21 13:40:58;;;;;;;7.27;5.77;;;;;;;;;;6253660;28;20299;-79
2023/01/21 13:44:27;;;;;;;7.90;6.03;;;;;;;;;;6238578;28;20303;-88
2023/01/21 13:47:56;;;;;;;9.13;5.63;;;;;;;;;;6238985;28;20283;-83
2023/01/21 13:51:16;;;;;;;7.53;5.97;;;;;;;;;;6236535;28;20307;-81
2023/01/21 13:54:46;;;;;;;8.87;7.20;;;;;;;;;;6237319;28;20304;-79
2023/01/21 13:58:00;;;;;;;8.60;6.90;;;;;;;;;;6238059;28;20276;-78
2023/01/21 14:01:10;;;;;;;9.60;6.30;;;;;;;;;;6237116;28;20276;-79
2023/01/21 14:04:23;;;;;;;6.33;5.60;;;;;;;;;;6237520;28;20622;-80
2023/01/21 14:07:32;;;;;;;6.10;5.53;;;;;;;;;;6238357;28;20299;-78
2023/01/21 14:10:40;;;;;;;6.70;5.53;;;;;;;;;;6230656;28;20288;-77
2023/01/21 14:14:09;;;;;;;5.70;5.20;;;;;;;;;;6213283;28;20296;-79
2023/01/21 14:17:48;;;;;;;6.07;5.47;;;;;;;;;;6213372;28;20276;-80
2023/01/21 14:21:26;;;;;;;11.47;8.23;;;;;;;;;;6212603;28;20304;-80
2023/01/21 14:24:45;;;;;;;9.03;6.20;;;;;;;;;;6208614;28;20332;-80
2023/01/21 14:28:00;;;;;;;5.87;5.37;;;;;;;;;;6213315;28;20410;-80
2023/01/21 14:31:11;;;;;;;6.20;5.50;;;;;;;;;;6212013;28;20304;-80
2023/01/21 14:34:19;;;;;;;5.33;4.87;;;;;;;;;;6211101;28;20296;-81
2023/01/21 14:37:29;;;;;;;6.50;5.40;;;;;;;;;;6212408;28;20272;-81
2023/01/21 14:40:49;;;;;;;6.50;4.87;;;;;;;;;;6212650;28;20372;-81
2023/01/21 14:43:54;;;;;;;7.83;6.03;;;;;;;;;;6212052;28;20295;-80
2023/01/21 14:47:21;;;;;;;5.87;5.23;;;;;;;;;;6212529;28;20283;-80
2023/01/21 14:50:51;;;;;;;5.60;5.10;;;;;;;;;;6212030;28;20300;-80
2023/01/21 14:54:00;;;;;;;5.77;5.23;;;;;;;;;;6212310;28;20305;-81
2023/01/21 14:57:13;;;;;;;5.73;5.23;;;;;;;;;;6212603;28;20600;-79
2023/01/21 15:00:25;;;;;;;6.70;5.00;;;;;;;;;;6211987;28;20490;-79
2023/01/21 15:03:33;;;;;;;5.67;5.17;;;;;;;;;;6212390;28;20322;-78
2023/01/21 15:06:40;;;;;;;7.10;5.73;;;;;;;;;;6212236;28;20572;-79
2023/01/21 15:09:50;;;;;;;9.00;5.70;;;;;;;;;;6211976;28;20300;-80
2023/01/21 15:12:58;;;;;;;5.93;5.50;;;;;;;;;;6212204;28;20268;-78
2023/01/21 15:16:09;;;;;;;6.33;5.10;;;;;;;;;;6212037;28;20301;-80
2023/01/21 15:19:28;;;;;;;6.13;5.17;;;;;;;;;;6202222;28;20299;-79
2023/01/21 15:22:45;;;;;;;5.70;5.17;;;;;;;;;;6211248;28;20304;-79
2023/01/21 15:26:18;;;;;;;7.10;5.83;;;;;;;;;;6211558;28;20319;-79
2023/01/21 15:29:33;;;;;;;6.23;5.60;;;;;;;;;;6210417;28;20299;-79
2023/01/21 15:32:39;;;;;;;6.00;5.47;;;;;;;;;;6210752;28;20273;-82
2023/01/21 15:35:45;;;;;;;5.63;5.23;;;;;;;;;;6211485;28;20388;-80
2023/01/21 15:38:56;;;;;;;7.63;5.83;;;;;;;;;;6210861;28;20304;-79
2023/01/21 15:42:13;;;;;;;5.63;5.10;;;;;;;;;;6211670;28;20272;-80
2023/01/21 15:45:37;;;;;;;5.63;5.13;;;;;;;;;;6210139;28;20303;-78
2023/01/21 15:48:53;;;;;;;6.60;5.97;;;;;;;;;;6211784;28;20315;-81
2023/01/21 15:52:04;;;;;;;6.10;5.53;;;;;;;;;;6210777;28;20459;-76
2023/01/21 15:55:22;;;;;;;7.07;5.53;;;;;;;;;;6211306;28;20307;-80
2023/01/21 15:58:33;;;;;;;6.17;5.57;;;;;;;;;;6216017;28;20578;-79
2023/01/21 16:01:41;;;;;;;6.57;5.70;;;;;;;;;;6216316;28;20270;-80
2023/01/21 16:04:58;;;;;;;5.93;5.43;;;;;;;;;;6216135;28;20470;-79
2023/01/21 16:08:13;;;;;;;7.77;5.87;;;;;;;;;;6215969;28;20302;-79
2023/01/21 16:11:40;;;;;;;5.43;5.03;;;;;;;;;;6227313;28;20275;-78
2023/01/21 16:14:55;;;;;;;7.03;5.77;;;;;;;;;;6239936;28;20626;-82
2023/01/21 16:18:10;;;;;;;13.43;7.57;;;;;;;;;;6240769;28;20286;-79
2023/01/21 16:21:17;;;;;;;7.53;5.80;;;;;;;;;;6240080;28;20275;-81
2023/01/21 16:24:25;;;;;;;6.83;6.03;;;;;;;;;;6240463;28;20295;-82
2023/01/21 16:27:33;;;;;;;6.60;5.97;;;;;;;;;;6239251;28;20279;-80
2023/01/21 16:30:38;;;;;;;7.63;5.77;;;;;;;;;;6239470;28;20303;-80
2023/01/21 16:33:47;;;;;;;8.03;6.00;;;;;;;;;;6239594;28;20299;-80
2023/01/21 16:36:52;;;;;;;7.10;5.80;;;;;;;;;;6239984;28;20287;-80
2023/01/21 16:40:26;;;;;;;7.33;6.00;;;;;;;;;;6239227;28;20306;-79
2023/01/21 16:43:31;;;;;;;8.20;6.67;;;;;;;;;;6239182;28;20291;-80
2023/01/21 16:46:39;;;;;;;9.47;7.20;;;;;;;;;;6238065;28;20468;-80
2023/01/21 16:49:45;;;;;;;7.40;6.33;;;;;;;;;;6239958;28;20296;-81
2023/01/21 16:52:51;;;;;;;8.97;6.67;;;;;;;;;;6240404;28;20275;-80
2023/01/21 16:55:58;;;;;;;10.87;7.20;;;;;;;;;;6239115;28;20407;-80
2023/01/21 16:59:03;;;;;;;9.40;6.87;;;;;;;;;;6239058;28;20298;-79
2023/01/21 17:02:19;;;;;;;9.37;7.20;;;;;;;;;;6240341;28;20262;-79
2023/01/21 17:05:27;;;;;;;11.13;7.70;;;;;;;;;;6253611;28;20291;-78
2023/01/21 17:08:34;;;;;;;9.30;7.50;;;;;;;;;;6236101;28;20464;-79
2023/01/21 17:11:45;;;;;;;10.30;7.27;;;;;;;;;;6224011;28;20275;-84
2023/01/21 17:14:56;;;;;;;11.13;7.20;;;;;;;;;;6216519;28;20296;-85
2023/01/21 17:18:01;;;;;;;9.93;7.50;;;;;;;;;;6214733;28;20299;-82
2023/01/21 17:21:10;;;;;;;12.00;7.90;;;;;;;;;;6212425;28;20280;-77
2023/01/21 17:24:19;;;;;;;13.00;7.50;;;;;;;;;;6214109;28;20305;-84
2023/01/21 17:27:25;;;;;;;13.00;8.13;;;;;;;;;;6214739;28;20582;-81
2023/01/21 17:30:32;;;;;;;13.07;8.00;;;;;;;;;;6228958;28;20307;-79
2023/01/21 17:33:38;;;;;;;12.10;7.10;;;;;;;;;;6214279;28;20577;-79
2023/01/21 17:36:46;;;;;;;9.97;7.70;;;;;;;;;;6212974;28;20305;-80
2023/01/21 17:39:59;;;;;;;10.70;7.60;;;;;;;;;;6215143;28;20309;-84
2023/01/21 17:43:20;;;;;;;10.80;7.27;;;;;;;;;;6215697;28;20283;-81
2023/01/21 17:46:26;;;;;;;10.50;7.47;;;;;;;;;;6220964;28;20275;-82
2023/01/21 17:49:31;;;;;;;9.60;7.17;;;;;;;;;;6224121;28;20266;-82
2023/01/21 17:52:38;;;;;;;12.33;8.30;;;;;;;;;;6218249;28;20292;-79
2023/01/21 17:55:56;;;;;;;12.50;7.63;;;;;;;;;;6213333;28;20571;-79
2023/01/21 17:59:01;;;;;;;11.23;8.10;;;;;;;;;;6212031;28;20299;-80
2023/01/21 18:02:10;;;;;;;12.73;7.97;;;;;;;;;;6214279;28;20275;-81
2023/01/21 18:05:15;;;;;;;10.80;7.83;;;;;;;;;;6228113;28;20293;-80
2023/01/21 18:08:25;;;;;;;13.77;7.77;;;;;;;;;;6213017;28;20282;-82
2023/01/21 18:11:34;;;;;;;11.50;7.13;;;;;;;;;;6227412;28;20270;-79
2023/01/21 18:14:42;;;;;;;9.23;6.40;;;;;;;;;;6254868;28;20295;-82
2023/01/21 18:17:51;;;;;;;7.67;6.43;;;;;;;;;;6221116;28;20381;-80
2023/01/21 18:20:57;;;;;;;7.20;6.27;;;;;;;;;;6237250;28;20300;-85
2023/01/21 18:24:04;;;;;;;13.60;9.43;;;;;;;;;;6237016;28;20331;-84
2023/01/21 18:27:13;;;;;;;11.47;8.13;;;;;;;;;;6237671;28;20570;-85
2023/01/21 18:30:20;;;;;;;8.13;6.83;;;;;;;;;;6237482;28;20303;-82
2023/01/21 18:33:27;;;;;;;10.57;7.07;;;;;;;;;;6238286;28;20309;-85
2023/01/21 18:36:32;;;;;;;7.53;5.93;;;;;;;;;;6238281;28;20559;-86
2023/01/21 18:39:39;;;;;;;6.10;5.50;;;;;;;;;;6237723;28;20323;-86
2023/01/21 18:42:45;;;;;;;7.53;5.63;;;;;;;;;;6252001;28;20261;-87
2023/01/21 18:45:51;;;;;;;6.27;5.67;;;;;;;;;;6236613;28;20299;-86
2023/01/21 18:48:58;;;;;;;6.60;5.90;;;;;;;;;;6236214;28;20313;-86
2023/01/21 18:52:03;;;;;;;9.07;6.37;;;;;;;;;;6235794;28;20479;-83